Time;durP1;ratioP1;P1;durP2;ratioP2;P2;SDS_P1;SDS_P2;PMS_P1;PMS_P2;Temp;Humidity;BMP_temperature;BMP_pressure;BME280_temperature;BME280_humidity;BME280_pressure;Samples;Min_cycle;Max_cycle;Signal;HPM_P1;HPM_P2
2023/06/05 00:01:34;;;;;;;9.02;4.00;;;;;;;12.11;100.00;101927.28;10487703;28;20112;-86
2023/06/05 00:06:34;;;;;;;12.02;3.10;;;;;;;12.03;100.00;101926.81;10502094;28;20391;-86
2023/06/05 00:11:35;;;;;;;8.23;2.67;;;;;;;11.87;100.00;101935.47;10493882;28;20051;-86
2023/06/05 00:16:35;;;;;;;8.70;4.28;;;;;;;11.77;100.00;101937.44;10509601;28;20119;-87
2023/06/05 00:21:36;;;;;;;9.63;4.35;;;;;;;11.69;100.00;101937.88;10509950;28;20071;-88
2023/06/05 00:26:36;;;;;;;6.25;3.38;;;;;;;11.57;100.00;101932.81;10509098;28;20036;-87
2023/06/05 00:31:37;;;;;;;11.18;4.47;;;;;;;11.54;100.00;101930.00;10509588;28;20111;-87
2023/06/05 00:36:40;;;;;;;6.00;3.20;;;;;;;11.46;100.00;101934.75;10508149;28;20572;-86
2023/06/05 00:41:41;;;;;;;7.32;3.22;;;;;;;11.44;100.00;101935.50;10509944;28;20111;-87
2023/06/05 00:46:42;;;;;;;7.70;3.15;;;;;;;11.35;100.00;101929.69;10526894;28;20040;-85
2023/06/05 00:51:43;;;;;;;8.70;4.85;;;;;;;11.25;100.00;101933.44;10508628;28;20040;-87
2023/06/05 00:56:44;;;;;;;8.40;3.17;;;;;;;11.05;100.00;101940.97;10491148;28;20036;-86
2023/06/05 01:01:45;;;;;;;6.38;4.25;;;;;;;10.97;100.00;101936.97;10527072;28;20361;-87
2023/06/05 01:06:45;;;;;;;9.18;3.60;;;;;;;10.77;100.00;101939.22;10504818;28;20462;-87
2023/06/05 01:11:56;;;;;;;6.32;3.30;;;;;;;10.65;100.00;101949.81;10471943;28;20122;-85
2023/06/05 01:17:00;;;;;;;7.70;4.15;;;;;;;10.58;100.00;101955.47;10490661;28;20563;-88
2023/06/05 01:22:01;;;;;;;6.63;4.32;;;;;;;10.51;100.00;101959.38;10507930;28;20032;-88
2023/06/05 01:27:31;;;;;;;9.70;3.38;;;;;;;10.52;100.00;101949.84;10525203;28;20082;-88
2023/06/05 01:32:53;;;;;;;8.52;4.22;;;;;;;10.33;100.00;101945.97;10540231;28;20036;-88
2023/06/05 01:37:54;;;;;;;8.95;3.83;;;;;;;10.34;100.00;101941.63;10493371;28;20051;-87
2023/06/05 01:42:55;;;;;;;10.13;4.23;;;;;;;10.35;100.00;101939.13;10489285;28;20453;-89
2023/06/05 01:47:56;;;;;;;9.00;4.47;;;;;;;10.24;100.00;101938.41;10507082;28;20302;-88
2023/06/05 01:52:57;;;;;;;7.68;3.72;;;;;;;10.14;100.00;101934.28;10490169;28;20123;-88
2023/06/05 01:57:57;;;;;;;8.00;4.70;;;;;;;10.13;100.00;101936.78;10524203;28;20375;-89
2023/06/05 02:02:58;;;;;;;6.65;4.35;;;;;;;10.10;100.00;101940.13;10525338;28;20066;-89
2023/06/05 02:07:58;;;;;;;5.75;4.10;;;;;;;9.92;100.00;101934.56;10490157;28;20036;-88
2023/06/05 02:12:59;;;;;;;13.52;5.28;;;;;;;9.90;100.00;101932.66;10522839;28;20151;-88
2023/06/05 02:18:00;;;;;;;8.38;4.25;;;;;;;9.83;100.00;101933.94;10502996;28;20079;-88
2023/06/05 02:23:01;;;;;;;9.13;4.97;;;;;;;9.68;100.00;101926.84;10505393;28;20063;-88
2023/06/05 02:28:01;;;;;;;8.95;5.35;;;;;;;9.63;100.00;101928.25;10506353;28;20036;-88
2023/06/05 02:33:03;;;;;;;8.73;5.00;;;;;;;9.48;100.00;101928.13;10512244;28;20047;-86
2023/06/05 02:38:05;;;;;;;10.07;5.45;;;;;;;9.32;100.00;101926.13;10532367;28;20028;-88
2023/06/05 02:43:06;;;;;;;8.80;6.10;;;;;;;9.20;100.00;101927.88;10513241;28;20429;-88
2023/06/05 02:48:06;;;;;;;12.48;6.75;;;;;;;9.10;100.00;101924.63;10532122;28;20147;-88
2023/06/05 02:53:07;;;;;;;17.90;5.70;;;;;;;8.95;100.00;101926.16;10513695;28;20135;-89
2023/06/05 02:58:07;;;;;;;13.98;5.60;;;;;;;8.90;100.00;101927.53;10531113;28;20059;-88
2023/06/05 03:03:08;;;;;;;12.32;5.43;;;;;;;8.84;100.00;101937.53;10511403;28;20060;-88
2023/06/05 03:08:08;;;;;;;10.57;6.43;;;;;;;8.91;100.00;101931.94;10530906;28;20047;-88
2023/06/05 03:13:09;;;;;;;17.85;6.53;;;;;;;8.80;100.00;101934.69;10529600;28;20054;-89
2023/06/05 03:18:10;;;;;;;12.90;6.38;;;;;;;8.70;100.00;101932.22;10512501;28;20119;-88
2023/06/05 03:23:10;;;;;;;11.02;5.80;;;;;;;8.65;100.00;101930.97;10526330;28;20040;-85
2023/06/05 03:28:11;;;;;;;11.35;6.03;;;;;;;8.55;100.00;101937.25;10512813;28;20499;-91
2023/06/05 03:33:13;;;;;;;11.23;6.18;;;;;;;8.51;100.00;101940.44;10530626;28;20126;-83
2023/06/05 03:38:14;;;;;;;;;;;;;;;8.56;100.00;101936.44;10530778;28;20047;-86
2023/06/05 03:43:15;;;;;;;11.20;6.75;;;;;;;8.59;100.00;101939.28;10527602;28;19923;-81
2023/06/05 03:48:19;;;;;;;20.23;7.88;;;;;;;8.60;100.00;101929.75;10529553;28;20476;-83
2023/06/05 03:53:19;;;;;;;13.65;8.07;;;;;;;8.58;100.00;101947.91;10511170;28;20526;-81
2023/06/05 03:58:20;;;;;;;10.05;6.90;;;;;;;8.61;100.00;101942.91;10529693;28;20051;-81
2023/06/05 04:03:21;;;;;;;27.58;8.90;;;;;;;8.65;100.00;101944.03;10510875;28;20139;-81
2023/06/05 04:08:21;;;;;;;13.68;6.78;;;;;;;8.77;100.00;101944.91;10510483;28;20036;-81
2023/06/05 04:13:22;;;;;;;10.98;6.93;;;;;;;8.92;100.00;101938.97;10480685;28;20046;-81
2023/06/05 04:18:22;;;;;;;12.30;7.07;;;;;;;9.01;100.00;101943.97;10528162;28;20038;-83
2023/06/05 04:23:23;;;;;;;16.02;7.03;;;;;;;9.24;100.00;101942.97;10509626;28;20123;-83
2023/06/05 04:28:24;;;;;;;13.18;7.38;;;;;;;9.58;100.00;101939.22;10525950;28;20535;-81
2023/06/05 04:33:24;;;;;;;12.23;6.53;;;;;;;9.87;100.00;101935.06;10489862;28;20040;-79
2023/06/05 04:38:25;;;;;;;14.43;6.20;;;;;;;10.17;100.00;101928.34;10525964;28;20115;-80
2023/06/05 04:43:25;;;;;;;11.57;5.30;;;;;;;10.55;100.00;101926.47;10511152;28;20040;-80
2023/06/05 04:48:27;;;;;;;10.40;5.72;;;;;;;10.81;100.00;101908.91;10507135;28;20166;-79
2023/06/05 04:53:34;;;;;;;10.75;6.32;;;;;;;10.94;100.00;101910.56;10524937;28;20036;-79
2023/06/05 04:58:34;;;;;;;12.55;6.32;;;;;;;11.34;100.00;101892.09;10518990;28;20036;-80
2023/06/05 05:03:35;;;;;;;12.05;5.63;;;;;;;11.80;100.00;101886.09;10506942;28;20117;-80
2023/06/05 05:08:36;;;;;;;12.63;6.28;;;;;;;12.02;100.00;101890.88;10492931;28;20576;-80
2023/06/05 05:13:36;;;;;;;8.00;5.43;;;;;;;12.38;100.00;101884.13;10501074;28;20165;-80
2023/06/05 05:18:40;;;;;;;10.57;5.57;;;;;;;13.12;100.00;101882.03;10504362;28;20126;-80
2023/06/05 05:23:40;;;;;;;8.00;5.68;;;;;;;13.78;100.00;101879.34;10505984;28;20118;-79
2023/06/05 05:28:41;;;;;;;11.75;6.45;;;;;;;14.14;100.00;101891.63;10522752;28;20047;-79
2023/06/05 05:33:41;;;;;;;12.05;5.45;;;;;;;14.66;100.00;101886.22;10517072;28;20059;-79
2023/06/05 05:38:42;;;;;;;15.57;5.10;;;;;;;15.06;100.00;101871.41;10504700;28;20534;-79
2023/06/05 05:43:42;;;;;;;9.43;5.78;;;;;;;15.90;100.00;101872.41;10507984;28;20051;-78
2023/06/05 05:48:43;;;;;;;9.40;5.80;;;;;;;16.39;100.00;101872.59;10466211;28;20113;-79
2023/06/05 05:53:43;;;;;;;11.90;6.47;;;;;;;17.10;100.00;101875.34;10485824;28;20036;-78
2023/06/05 05:58:44;;;;;;;12.50;5.37;;;;;;;17.76;100.00;101876.78;10514763;28;20114;-79
2023/06/05 06:03:45;;;;;;;10.67;6.27;;;;;;;18.35;100.00;101885.75;10508032;28;20028;-78
2023/06/05 06:08:45;;;;;;;10.63;4.87;;;;;;;18.59;100.00;101877.69;10511066;28;20111;-78
2023/06/05 06:13:46;;;;;;;13.63;5.10;;;;;;;19.77;100.00;101877.44;10533302;28;20428;-79
2023/06/05 06:18:46;;;;;;;16.87;4.77;;;;;;;19.80;98.15;101882.84;10510864;28;20780;-79
2023/06/05 06:23:47;;;;;;;11.50;7.23;;;;;;;20.19;92.78;101882.06;10503118;28;20050;-79
2023/06/05 06:28:47;;;;;;;9.90;5.47;;;;;;;20.69;83.59;101873.47;10489078;28;20044;-79
2023/06/05 06:33:48;;;;;;;7.37;5.30;;;;;;;21.19;80.35;101881.59;10509805;28;20033;-78
2023/06/05 06:38:48;;;;;;;6.90;4.43;;;;;;;21.52;79.06;101884.00;10510746;28;20123;-79
2023/06/05 06:43:52;;;;;;;13.27;6.23;;;;;;;21.61;75.51;101888.59;10481750;28;20049;-79
2023/06/05 06:48:52;;;;;;;10.48;4.80;;;;;;;22.39;72.04;101887.22;10500855;28;20039;-80
2023/06/05 06:53:53;;;;;;;14.27;7.37;;;;;;;22.29;72.01;101896.88;10490274;28;20348;-80
2023/06/05 06:58:54;;;;;;;11.40;7.63;;;;;;;22.90;63.87;101903.97;10467855;28;20123;-85
2023/06/05 07:03:55;;;;;;;10.52;5.90;;;;;;;23.02;67.83;101903.22;10496947;28;20052;-83
2023/06/05 07:08:55;;;;;;;7.87;5.13;;;;;;;23.14;64.03;101908.72;10512691;28;20072;-83
2023/06/05 07:13:56;;;;;;;9.33;5.83;;;;;;;23.90;62.48;101914.88;10526753;28;20537;-83
2023/06/05 07:18:56;;;;;;;11.13;7.10;;;;;;;24.12;60.16;101915.09;10529719;28;20089;-80
2023/06/05 07:23:57;;;;;;;8.83;5.53;;;;;;;24.70;56.26;101907.44;10509457;28;20131;-79
2023/06/05 07:28:57;;;;;;;9.70;5.83;;;;;;;24.67;57.00;101915.44;10510201;28;20078;-79
2023/06/05 07:33:59;;;;;;;11.25;5.75;;;;;;;24.96;55.66;101907.59;10513992;28;20072;-78
2023/06/05 07:39:00;;;;;;;8.40;5.53;;;;;;;25.45;54.47;101911.34;10485620;28;20553;-84
2023/06/05 07:44:00;;;;;;;9.10;5.97;;;;;;;25.05;55.40;101910.31;10482944;28;20108;-81
2023/06/05 07:49:01;;;;;;;14.63;6.83;;;;;;;25.71;53.37;101907.81;10489912;28;20079;-78
2023/06/05 07:54:11;;;;;;;8.30;5.40;;;;;;;25.96;52.40;101914.06;10497967;28;20467;-76
2023/06/05 07:59:14;;;;;;;12.93;7.38;;;;;;;25.43;57.06;101911.31;10490231;28;20134;-79
2023/06/05 08:04:15;;;;;;;8.60;5.25;;;;;;;25.87;53.97;101911.41;10500018;28;20039;-79
2023/06/05 08:09:15;;;;;;;10.55;7.53;;;;;;;26.09;51.33;101910.50;10479822;28;20115;-81
2023/06/05 08:14:16;;;;;;;9.70;6.25;;;;;;;26.83;48.13;101903.25;10469342;28;20036;-80
2023/06/05 08:19:16;;;;;;;10.33;7.33;;;;;;;26.13;51.28;101898.00;10483147;28;20109;-81
2023/06/05 08:24:17;;;;;;;12.87;7.40;;;;;;;26.41;52.91;101895.31;10508071;28;20507;-80
2023/06/05 08:29:17;;;;;;;9.17;5.83;;;;;;;26.97;49.22;101884.41;10483696;28;20032;-79
2023/06/05 08:34:18;;;;;;;12.47;7.60;;;;;;;27.18;49.47;101883.38;10458253;28;20063;-79
2023/06/05 08:39:19;;;;;;;14.63;6.60;;;;;;;27.43;45.84;101876.97;10485179;28;20066;-79
2023/06/05 08:44:19;;;;;;;11.40;6.72;;;;;;;27.40;46.53;101878.78;10506657;28;20051;-80
2023/06/05 08:49:20;;;;;;;17.10;7.88;;;;;;;27.26;47.59;101875.28;10524437;28;20436;-77
2023/06/05 08:54:20;;;;;;;8.93;6.27;;;;;;;27.76;44.83;101883.91;10467517;28;20388;-78
2023/06/05 08:59:24;;;;;;;14.97;7.27;;;;;;;27.84;44.84;101870.41;10443469;28;20697;-77
2023/06/05 09:04:25;;;;;;;10.95;6.47;;;;;;;28.10;43.95;101864.78;10485750;28;20089;-81
2023/06/05 09:09:26;;;;;;;8.88;6.30;;;;;;;27.98;45.56;101864.88;10507569;28;20040;-80
2023/06/05 09:14:27;;;;;;;9.48;6.32;;;;;;;28.72;47.80;101864.09;10490541;28;20119;-81
2023/06/05 09:19:37;;;;;;;11.80;6.53;;;;;;;28.94;43.59;101862.97;10507892;28;20118;-80
2023/06/05 09:24:38;;;;;;;10.40;6.85;;;;;;;28.95;42.67;101859.38;10507264;28;20051;-80
2023/06/05 09:29:39;;;;;;;12.48;6.10;;;;;;;29.02;43.63;101858.38;10491055;28;20039;-81
2023/06/05 09:34:40;;;;;;;9.95;6.32;;;;;;;28.82;41.35;101853.25;10490508;28;20036;-81
2023/06/05 09:39:43;;;;;;;12.17;6.30;;;;;;;29.27;42.53;101852.63;10505791;28;20055;-80
2023/06/05 09:44:43;;;;;;;14.30;7.15;;;;;;;29.74;43.80;101853.69;10490955;28;20090;-80
2023/06/05 09:49:44;;;;;;;7.97;6.37;;;;;;;30.00;39.63;101862.25;10489329;28;20047;-80
2023/06/05 09:54:45;;;;;;;15.23;7.50;;;;;;;29.94;43.68;101846.16;10524683;28;20734;-81
2023/06/05 09:59:54;;;;;;;13.68;6.50;;;;;;;29.88;38.81;101850.75;10505713;28;20093;-81
2023/06/05 10:04:58;;;;;;;14.23;6.65;;;;;;;29.64;40.05;101843.06;10506559;28;20127;-80
2023/06/05 10:09:58;;;;;;;12.00;6.38;;;;;;;29.88;41.81;101836.38;10522727;28;20122;-81
2023/06/05 10:14:59;;;;;;;13.83;6.50;;;;;;;30.26;41.11;101832.09;10471884;28;20036;-81
2023/06/05 10:19:59;;;;;;;14.00;7.20;;;;;;;30.08;41.77;101836.03;10505398;28;20032;-81
2023/06/05 10:25:02;;;;;;;11.13;6.77;;;;;;;30.04;41.32;101834.31;10488409;28;20354;-80
2023/06/05 10:30:27;;;;;;;12.45;5.15;;;;;;;30.37;39.47;101828.28;10463038;28;20432;-81
2023/06/05 10:35:46;;;;;;;8.57;6.00;;;;;;;30.40;37.91;101818.28;10482056;28;20131;-81
2023/06/05 10:40:56;;;;;;;7.82;5.32;;;;;;;30.25;38.80;101815.91;10498275;28;20460;-81
2023/06/05 10:45:58;;;;;;;13.00;4.65;;;;;;;30.69;35.78;101822.22;10448689;28;20052;-80
2023/06/05 10:51:40;;;;;;;12.82;5.82;;;;;;;30.80;37.76;101816.59;10432126;28;20503;-80
2023/06/05 10:57:01;;;;;;;10.02;4.97;;;;;;;30.27;36.76;101805.97;10504953;28;20047;-80
2023/06/05 11:02:18;;;;;;;;;;;;;;;30.11;39.47;101808.09;10489907;28;20090;-80
2023/06/05 11:07:20;;;;;;;8.68;4.90;;;;;;;30.67;36.89;101801.59;10489682;28;19916;-80
2023/06/05 11:12:21;;;;;;;8.30;4.30;;;;;;;30.82;34.97;101795.84;10454498;28;20032;-80
2023/06/05 11:17:28;;;;;;;7.60;4.37;;;;;;;31.14;34.90;101799.59;10454492;28;20395;-80
2023/06/05 11:22:29;;;;;;;9.52;4.97;;;;;;;31.26;34.92;101794.84;10488674;28;20113;-78
2023/06/05 11:27:46;;;;;;;17.33;4.93;;;;;;;31.04;34.41;101788.09;10470156;28;20071;-79
2023/06/05 11:32:47;;;;;;;8.50;4.45;;;;;;;31.20;35.93;101785.06;10488077;28;20102;-79
2023/06/05 11:37:47;;;;;;;9.02;4.05;;;;;;;31.20;35.04;101777.84;10469446;28;20037;-79
2023/06/05 11:42:48;;;;;;;13.60;4.80;;;;;;;31.53;34.48;101776.13;10470594;28;20040;-80
2023/06/05 11:47:48;;;;;;;6.70;3.80;;;;;;;31.46;34.24;101765.47;10469423;28;20301;-79
2023/06/05 11:52:49;;;;;;;7.17;3.40;;;;;;;31.02;35.05;101768.31;10452905;28;20078;-80
2023/06/05 11:57:49;;;;;;;6.85;3.35;;;;;;;31.31;32.00;101766.75;10487673;28;20151;-80
2023/06/05 12:02:50;;;;;;;5.67;2.70;;;;;;;31.54;32.18;101761.69;10468501;28;20123;-80
2023/06/05 12:07:50;;;;;;;7.60;3.20;;;;;;;31.42;34.61;101760.19;10485228;28;20309;-79
2023/06/05 12:12:52;;;;;;;6.90;4.05;;;;;;;30.52;32.23;101759.53;10468515;28;20123;-79
2023/06/05 12:17:54;;;;;;;8.25;3.17;;;;;;;30.12;33.32;101745.09;10468816;28;20113;-79
2023/06/05 12:22:56;;;;;;;4.22;2.25;;;;;;;30.82;31.64;101740.91;10484756;28;20036;-78
2023/06/05 12:27:57;;;;;;;6.28;3.42;;;;;;;31.37;31.25;101741.38;10468142;28;20442;-78
2023/06/05 12:33:04;;;;;;;6.67;3.23;;;;;;;31.52;28.92;101733.78;10468822;28;20071;-79
2023/06/05 12:38:05;;;;;;;6.75;2.53;;;;;;;31.24;29.75;101731.81;10450991;28;20163;-78
2023/06/05 12:43:17;;;;;;;4.78;2.05;;;;;;;30.89;29.60;101729.00;10484105;28;20106;-83
2023/06/05 12:48:19;;;;;;;7.28;3.17;;;;;;;30.63;29.79;101724.25;10450836;28;20056;-81
2023/06/05 12:53:19;;;;;;;4.72;2.75;;;;;;;30.44;31.13;101722.81;10484372;28;20507;-82
2023/06/05 12:58:21;;;;;;;4.82;2.72;;;;;;;30.07;30.27;101720.03;10466664;28;20033;-81
2023/06/05 13:03:22;;;;;;;8.57;2.85;;;;;;;29.31;34.08;101731.25;10484616;28;20032;-82
2023/06/05 13:08:24;;;;;;;;;;;;;;;29.57;33.72;101715.56;10499133;28;20498;-81
2023/06/05 13:13:25;;;;;;;3.97;2.08;;;;;;;29.87;32.62;101718.59;10523172;28;19946;-78
2023/06/05 13:18:25;;;;;;;8.80;3.43;;;;;;;30.73;31.86;101704.19;10505846;28;20102;-81
2023/06/05 13:23:26;;;;;;;5.53;3.00;;;;;;;30.79;29.85;101704.06;10506982;28;20048;-80
2023/06/05 13:28:27;;;;;;;6.20;3.92;;;;;;;31.16;30.91;101688.72;10525060;28;20383;-83
2023/06/05 13:33:28;;;;;;;7.07;2.30;;;;;;;31.18;30.34;101681.47;10507319;28;20031;-81
2023/06/05 13:38:28;;;;;;;14.50;3.73;;;;;;;30.82;31.04;101671.56;10505936;28;20115;-80
2023/06/05 13:43:29;;;;;;;5.87;2.40;;;;;;;30.29;27.97;101679.94;10524964;28;20350;-77
2023/06/05 13:48:30;;;;;;;3.70;2.25;;;;;;;29.74;28.60;101672.06;10522578;28;20040;-77
2023/06/05 13:53:34;;;;;;;7.33;2.63;;;;;;;30.04;30.37;101672.38;10505482;28;20055;-77
2023/06/05 13:58:35;;;;;;;5.55;2.30;;;;;;;29.82;30.08;101667.41;10524823;28;20627;-77
2023/06/05 14:03:35;;;;;;;5.15;2.63;;;;;;;30.05;32.28;101665.19;10523802;28;20063;-76
2023/06/05 14:08:36;;;;;;;2.63;1.77;;;;;;;29.79;30.59;101670.16;10505004;28;20067;-78
2023/06/05 14:13:36;;;;;;;10.43;3.40;;;;;;;29.19;33.64;101658.69;10524340;28;20494;-77
2023/06/05 14:18:37;;;;;;;8.03;3.10;;;;;;;29.31;33.09;101655.78;10480478;28;20050;-78
2023/06/05 14:23:38;;;;;;;4.25;2.92;;;;;;;29.27;32.86;101647.78;10487990;28;20043;-77
2023/06/05 14:28:38;;;;;;;4.67;2.10;;;;;;;28.88;33.30;101645.75;10510159;28;20032;-77
2023/06/05 14:33:39;;;;;;;5.93;2.80;;;;;;;27.75;33.56;101655.38;10516138;28;20472;-78
2023/06/05 14:38:43;;;;;;;7.80;2.50;;;;;;;27.07;34.30;101643.47;10503251;28;20063;-77
2023/06/05 14:43:43;;;;;;;10.82;3.53;;;;;;;27.01;36.96;101646.22;10524711;28;20040;-77
2023/06/05 14:48:44;;;;;;;5.90;2.47;;;;;;;27.47;34.98;101635.00;10521380;28;20158;-78
2023/06/05 14:53:45;;;;;;;6.45;2.90;;;;;;;27.18;33.82;101638.88;10519195;28;20036;-78
2023/06/05 14:58:45;;;;;;;5.73;2.30;;;;;;;26.33;35.13;101644.88;10485731;28;20052;-77
2023/06/05 15:03:46;;;;;;;5.23;3.13;;;;;;;25.59;36.21;101640.69;10475706;28;20060;-77
2023/06/05 15:08:47;;;;;;;11.87;3.50;;;;;;;25.33;37.61;101639.81;10517628;28;20025;-76
2023/06/05 15:13:47;;;;;;;13.27;3.70;;;;;;;25.18;38.60;101629.13;10513902;28;20039;-76
2023/06/05 15:18:48;;;;;;;6.33;2.90;;;;;;;24.79;37.51;101634.47;10529859;28;20115;-76
2023/06/05 15:23:48;;;;;;;7.17;3.03;;;;;;;24.75;41.88;101625.56;10528219;28;20480;-76
2023/06/05 15:28:49;;;;;;;10.60;3.03;;;;;;;24.74;39.04;101630.91;10530431;28;20103;-77
2023/06/05 15:33:49;;;;;;;8.33;3.00;;;;;;;24.41;38.50;101622.81;10528400;28;20044;-78
2023/06/05 15:38:50;;;;;;;6.57;3.43;;;;;;;24.29;42.39;101622.78;10528340;28;20114;-77
2023/06/05 15:43:50;;;;;;;7.90;3.87;;;;;;;24.21;40.08;101620.09;10511194;28;20056;-76
2023/06/05 15:48:51;;;;;;;5.70;3.00;;;;;;;24.23;41.05;101626.31;10530202;28;20039;-77
2023/06/05 15:53:51;;;;;;;7.97;2.97;;;;;;;24.38;42.36;101619.22;10511757;28;20055;-76
2023/06/05 15:58:52;;;;;;;5.13;3.53;;;;;;;24.34;42.26;101615.69;10511456;28;20060;-77
2023/06/05 16:03:53;;;;;;;13.17;4.00;;;;;;;24.21;42.72;101606.72;10511559;28;20510;-77
2023/06/05 16:08:53;;;;;;;5.80;2.93;;;;;;;24.08;44.23;101602.22;10510729;28;20393;-77
2023/06/05 16:13:54;;;;;;;9.30;2.77;;;;;;;23.96;41.45;101600.38;10528574;28;20356;-77
2023/06/05 16:18:56;;;;;;;4.77;2.87;;;;;;;23.85;44.71;101593.22;10509945;28;20150;-77
2023/06/05 16:23:57;;;;;;;6.90;2.53;;;;;;;23.78;44.70;101591.41;10511139;28;20047;-77
2023/06/05 16:28:57;;;;;;;5.20;2.53;;;;;;;23.75;46.24;101592.25;10509581;28;20040;-79
2023/06/05 16:34:00;;;;;;;8.70;2.50;;;;;;;23.66;45.23;101589.56;10509789;28;20119;-78
2023/06/05 16:39:01;;;;;;;5.90;2.35;;;;;;;23.63;43.97;101589.53;10510452;28;20344;-78
2023/06/05 16:44:02;;;;;;;6.70;3.10;;;;;;;23.49;45.54;101580.56;10527320;28;20119;-78
2023/06/05 16:49:03;;;;;;;6.03;2.75;;;;;;;23.46;47.77;101578.78;10508759;28;20028;-78
2023/06/05 16:54:05;;;;;;;6.13;3.60;;;;;;;23.36;47.45;101582.28;10526610;28;20122;-77
2023/06/05 16:59:12;;;;;;;8.10;3.20;;;;;;;23.25;47.33;101585.78;10509705;28;20024;-77
2023/06/05 17:04:12;;;;;;;6.65;2.65;;;;;;;23.11;47.92;101582.97;10506913;28;20545;-76
2023/06/05 17:09:15;;;;;;;6.60;2.73;;;;;;;22.94;48.53;101573.94;10525304;28;20056;-78
2023/06/05 17:14:15;;;;;;;4.05;2.83;;;;;;;22.83;47.66;101574.75;10526837;28;20028;-78
2023/06/05 17:19:16;;;;;;;6.97;2.90;;;;;;;22.73;49.80;101570.22;10507756;28;20469;-77
2023/06/05 17:24:17;;;;;;;4.67;3.40;;;;;;;22.57;50.32;101578.09;10524986;28;20060;-78
2023/06/05 17:29:17;;;;;;;15.53;3.03;;;;;;;22.53;51.72;101578.94;10525632;28;20614;-77
2023/06/05 17:34:19;;;;;;;5.27;2.37;;;;;;;22.37;51.37;101574.31;10508229;28;20473;-78
2023/06/05 17:39:19;;;;;;;10.55;4.28;;;;;;;22.15;52.37;101577.66;10507676;28;20032;-77
2023/06/05 17:44:21;;;;;;;6.23;3.17;;;;;;;21.96;53.28;101586.31;10506995;28;20048;-78
2023/06/05 17:49:22;;;;;;;6.45;2.85;;;;;;;21.78;54.16;101576.31;10492040;28;20044;-79
2023/06/05 17:54:24;;;;;;;7.60;3.40;;;;;;;21.62;54.31;101581.41;10490017;28;20138;-78
2023/06/05 17:59:25;;;;;;;8.43;3.13;;;;;;;21.51;56.12;101586.63;10525391;28;20032;-79
2023/06/05 18:04:25;;;;;;;5.77;2.83;;;;;;;21.35;56.09;101579.28;10507191;28;20075;-79
2023/06/05 18:09:26;;;;;;;4.90;2.77;;;;;;;21.24;56.95;101585.34;10507479;28;20052;-79
2023/06/05 18:14:27;;;;;;;6.10;2.60;;;;;;;21.21;57.99;101590.63;10507124;28;20447;-79
2023/06/05 18:19:27;;;;;;;6.63;3.13;;;;;;;21.02;58.83;101593.88;10506647;28;20056;-78
2023/06/05 18:24:28;;;;;;;9.67;3.10;;;;;;;20.87;58.19;101586.53;10525020;28;20044;-79
2023/06/05 18:29:28;;;;;;;5.63;3.30;;;;;;;20.69;60.25;101593.28;10506722;28;20032;-79
2023/06/05 18:34:30;;;;;;;11.13;4.50;;;;;;;20.55;61.34;101595.72;10523862;28;20151;-79
2023/06/05 18:39:30;;;;;;;7.65;3.15;;;;;;;20.38;62.71;101591.00;10506115;28;20065;-79
2023/06/05 18:44:31;;;;;;;7.25;2.95;;;;;;;20.20;63.76;101599.50;10525176;28;20115;-80
2023/06/05 18:49:31;;;;;;;5.97;2.80;;;;;;;19.98;67.71;101591.97;10470772;28;20048;-78
2023/06/05 18:54:32;;;;;;;4.40;3.20;;;;;;;19.81;69.32;101597.78;10489051;28;20050;-79
2023/06/05 18:59:33;;;;;;;6.68;3.05;;;;;;;19.65;70.68;101599.22;10504174;28;20507;-79
2023/06/05 19:04:33;;;;;;;10.05;3.47;;;;;;;19.43;76.08;101604.06;10488846;28;20047;-79
2023/06/05 19:09:37;;;;;;;7.15;2.97;;;;;;;19.16;78.90;101604.31;10488832;28;20487;-79
2023/06/05 19:14:38;;;;;;;4.97;3.25;;;;;;;18.99;82.27;101595.94;10528070;28;20035;-78
2023/06/05 19:19:38;;;;;;;5.88;2.92;;;;;;;18.73;86.50;101597.03;10530797;28;20040;-79
2023/06/05 19:24:39;;;;;;;8.27;4.07;;;;;;;18.45;91.29;101598.09;10511966;28;20063;-79
2023/06/05 19:29:40;;;;;;;11.65;3.72;;;;;;;18.17;95.34;101606.16;10530715;28;20484;-79
2023/06/05 19:34:41;;;;;;;12.25;5.40;;;;;;;18.08;96.60;101608.56;10512253;28;20515;-78
2023/06/05 19:39:41;;;;;;;13.75;4.88;;;;;;;17.81;100.00;101616.56;10512228;28;20036;-79
2023/06/05 19:44:42;;;;;;;8.40;3.75;;;;;;;17.69;100.00;101612.69;10495099;28;20040;-79
2023/06/05 19:49:43;;;;;;;8.20;3.78;;;;;;;17.57;100.00;101620.28;10528592;28;20076;-79
2023/06/05 19:54:43;;;;;;;5.85;2.67;;;;;;;17.27;100.00;101629.91;10478680;28;20066;-78
2023/06/05 19:59:45;;;;;;;10.20;4.28;;;;;;;17.07;100.00;101636.31;10510976;28;20103;-79
2023/06/05 20:04:46;;;;;;;6.75;2.85;;;;;;;16.77;100.00;101642.31;10493940;28;20167;-79
2023/06/05 20:09:47;;;;;;;24.98;6.85;;;;;;;16.56;100.00;101649.56;10494855;28;20035;-79
2023/06/05 20:14:47;;;;;;;12.52;4.20;;;;;;;16.55;100.00;101657.41;10509600;28;20049;-79
2023/06/05 20:19:48;;;;;;;22.88;5.50;;;;;;;16.35;100.00;101660.25;10509567;28;20059;-80
2023/06/05 20:24:49;;;;;;;8.50;3.08;;;;;;;15.99;100.00;101666.88;10508648;28;20127;-79
2023/06/05 20:29:50;;;;;;;24.93;4.70;;;;;;;15.89;100.00;101658.50;10493994;28;20044;-80
2023/06/05 20:34:50;;;;;;;11.75;4.82;;;;;;;15.75;100.00;101666.75;10492452;28;20064;-79
2023/06/05 20:39:51;;;;;;;8.13;3.00;;;;;;;15.60;100.00;101669.72;10506596;28;20392;-82
2023/06/05 20:44:55;;;;;;;5.93;3.58;;;;;;;15.95;100.00;101666.66;10509174;28;20036;-80
2023/06/05 20:49:57;;;;;;;13.30;5.40;;;;;;;16.32;100.00;101667.16;10505904;28;20032;-78
2023/06/05 20:55:03;;;;;;;10.60;3.70;;;;;;;16.46;100.00;101670.28;10508986;28;20096;-79
2023/06/05 21:00:08;;;;;;;7.10;3.85;;;;;;;16.28;100.00;101671.41;10491629;28;20111;-78
2023/06/05 21:05:09;;;;;;;6.18;3.78;;;;;;;16.17;100.00;101680.69;10528113;28;20028;-79
2023/06/05 21:10:10;;;;;;;7.68;3.90;;;;;;;15.99;100.00;101681.78;10508457;28;20467;-78
2023/06/05 21:15:11;;;;;;;9.85;5.07;;;;;;;15.74;100.00;101678.16;10508139;28;20765;-79
2023/06/05 21:20:12;;;;;;;7.45;4.55;;;;;;;15.59;100.00;101678.47;10492444;28;20039;-77
2023/06/05 21:25:13;;;;;;;8.70;4.80;;;;;;;15.49;100.00;101677.19;10525391;28;20040;-78
2023/06/05 21:30:14;;;;;;;10.82;4.00;;;;;;;15.50;100.00;101686.00;10525895;28;20042;-78
2023/06/05 21:35:14;;;;;;;9.32;4.93;;;;;;;15.38;100.00;101689.94;10507087;28;20051;-79
2023/06/05 21:40:15;;;;;;;8.82;4.63;;;;;;;15.21;100.00;101693.63;10507945;28;20040;-78
2023/06/05 21:45:15;;;;;;;14.40;4.80;;;;;;;15.07;100.00;101695.66;10507966;28;20032;-78
2023/06/05 21:50:16;;;;;;;10.52;5.78;;;;;;;15.00;100.00;101701.50;10507080;28;20032;-78
2023/06/05 21:55:16;;;;;;;6.75;3.78;;;;;;;14.92;100.00;101703.84;10526013;28;20081;-77
2023/06/05 22:00:17;;;;;;;22.90;5.47;;;;;;;14.78;100.00;101703.22;10506978;28;20139;-78
2023/06/05 22:05:17;;;;;;;11.93;5.63;;;;;;;14.64;100.00;101716.66;10525507;28;20059;-78
2023/06/05 22:10:18;;;;;;;8.93;4.50;;;;;;;14.50;100.00;101710.78;10525318;28;20115;-78
2023/06/05 22:15:19;;;;;;;9.40;4.82;;;;;;;14.30;100.00;101720.38;10507424;28;20511;-79
2023/06/05 22:20:20;;;;;;;12.33;6.50;;;;;;;14.15;100.00;101720.59;10506918;28;20383;-79
2023/06/05 22:25:20;;;;;;;9.55;5.35;;;;;;;14.07;100.00;101725.47;10524333;28;20320;-78
2023/06/05 22:30:21;;;;;;;13.05;6.35;;;;;;;14.01;100.00;101721.69;10506855;28;20480;-78
2023/06/05 22:35:21;;;;;;;13.45;6.10;;;;;;;13.89;100.00;101732.50;10506595;28;20476;-79
2023/06/05 22:40:22;;;;;;;9.65;6.00;;;;;;;13.80;100.00;101736.50;10505876;28;20032;-79
2023/06/05 22:45:22;;;;;;;11.30;5.90;;;;;;;13.71;100.00;101737.81;10507245;28;20169;-79
2023/06/05 22:50:23;;;;;;;12.70;5.88;;;;;;;13.66;100.00;101748.09;10477606;28;20847;-79
2023/06/05 22:55:23;;;;;;;10.43;6.05;;;;;;;13.80;100.00;101744.38;10490354;28;20052;-79